Time;durP1;ratioP1;P1;durP2;ratioP2;P2;SDS_P1;SDS_P2;PMS_P1;PMS_P2;Temp;Humidity;BMP_temperature;BMP_pressure;BME280_temperature;BME280_humidity;BME280_pressure;Samples;Min_cycle;Max_cycle;Signal;HPM_P1;HPM_P2
2023/06/25 00:00:27;;;;;;;9.17;6.17;;;20.60;71.60;;;;;;5084750;28;20536;-80
2023/06/25 00:02:54;;;;;;;10.00;7.53;;;20.60;71.60;;;;;;5083497;28;20794;-80
2023/06/25 00:05:23;;;;;;;10.27;6.73;;;20.60;71.60;;;;;;5086614;28;20944;-80
2023/06/25 00:07:50;;;;;;;9.97;6.53;;;20.60;71.60;;;;;;5062220;28;20547;-80
2023/06/25 00:10:19;;;;;;;20.90;7.80;;;20.50;71.50;;;;;;5082585;28;21054;-81
2023/06/25 00:12:47;;;;;;;12.53;7.17;;;20.50;71.60;;;;;;5067245;28;20552;-81
2023/06/25 00:15:16;;;;;;;11.63;7.30;;;20.50;71.60;;;;;;5083987;28;20446;-81
2023/06/25 00:17:47;;;;;;;12.70;7.60;;;20.50;71.50;;;;;;5083530;28;20461;-80
2023/06/25 00:20:15;;;;;;;10.73;6.00;;;20.50;71.50;;;;;;5076954;28;20511;-80
2023/06/25 00:22:43;;;;;;;11.27;6.87;;;20.50;71.50;;;;;;5086425;28;21003;-79
2023/06/25 00:25:26;;;;;;;11.50;6.40;;;20.50;71.50;;;;;;5084755;28;20484;-82
2023/06/25 00:27:57;;;;;;;13.07;7.57;;;20.50;71.50;;;;;;5085605;28;20894;-79
2023/06/25 00:30:27;;;;;;;9.20;6.10;;;20.50;71.40;;;;;;5066537;28;20497;-79
2023/06/25 00:32:55;;;;;;;10.37;6.40;;;20.40;71.30;;;;;;5082970;28;20488;-79
2023/06/25 00:35:27;;;;;;;10.60;7.10;;;20.40;71.40;;;;;;5082237;28;20440;-79
2023/06/25 00:37:58;;;;;;;10.10;6.10;;;20.40;71.50;;;;;;5065020;28;20453;-80
2023/06/25 00:40:27;;;;;;;10.70;6.30;;;20.40;71.50;;;;;;5076543;28;20464;-80
2023/06/25 00:42:58;;;;;;;18.30;6.90;;;20.40;71.50;;;;;;5085680;28;20479;-80
2023/06/25 00:45:30;;;;;;;11.00;6.83;;;20.40;71.40;;;;;;5075350;28;20445;-81
2023/06/25 00:47:59;;;;;;;15.00;7.20;;;20.40;71.20;;;;;;5072062;28;20456;-79
2023/06/25 00:50:27;;;;;;;11.47;5.90;;;20.30;71.10;;;;;;5071648;28;20488;-82
2023/06/25 00:52:57;;;;;;;10.23;7.20;;;20.20;71.10;;;;;;5088122;28;20452;-82
2023/06/25 00:55:26;;;;;;;9.90;6.77;;;20.20;71.20;;;;;;5075178;28;20894;-80
2023/06/25 00:57:55;;;;;;;11.80;6.97;;;20.10;71.30;;;;;;5074392;28;20459;-82
2023/06/25 01:00:25;;;;;;;12.47;7.73;;;20.10;71.40;;;;;;5071380;28;20506;-79
2023/06/25 01:03:03;;;;;;;10.33;6.87;;;20.10;71.40;;;;;;5086616;28;20456;-81
2023/06/25 01:05:39;;;;;;;10.90;7.13;;;20.10;71.50;;;;;;5084406;28;20448;-82
2023/06/25 01:08:09;;;;;;;10.90;6.53;;;20.00;71.30;;;;;;5089024;28;20521;-80
2023/06/25 01:10:38;;;;;;;10.53;6.80;;;19.90;71.40;;;;;;5064218;28;20488;-82
2023/06/25 01:13:06;;;;;;;11.47;7.33;;;19.90;71.40;;;;;;5068729;28;20859;-79
2023/06/25 01:15:35;;;;;;;14.87;8.40;;;19.70;71.40;;;;;;5083249;28;20494;-81
2023/06/25 01:18:05;;;;;;;10.90;7.40;;;19.70;71.60;;;;;;5072052;28;20460;-80
2023/06/25 01:20:38;;;;;;;10.73;7.33;;;19.60;71.80;;;;;;5074188;28;20468;-79
2023/06/25 01:23:09;;;;;;;12.80;6.97;;;19.60;71.80;;;;;;5090777;28;20973;-80
2023/06/25 01:25:37;;;;;;;13.20;7.77;;;19.60;72.00;;;;;;5076464;28;20596;-82
2023/06/25 01:28:06;;;;;;;12.50;7.73;;;19.70;72.10;;;;;;5069519;28;20994;-80
2023/06/25 01:30:35;;;;;;;11.30;6.73;;;19.60;72.10;;;;;;5068500;28;20547;-80
2023/06/25 01:33:03;;;;;;;9.60;6.60;;;19.60;72.00;;;;;;5086983;28;20462;-80
2023/06/25 01:35:31;;;;;;;12.90;7.27;;;19.60;72.20;;;;;;5074388;28;21021;-81
2023/06/25 01:38:00;;;;;;;12.20;6.73;;;19.60;72.20;;;;;;5082035;28;20444;-82
2023/06/25 01:40:34;;;;;;;13.33;6.83;;;19.60;72.20;;;;;;5075837;28;20452;-80
2023/06/25 01:43:02;;;;;;;20.30;6.90;;;19.60;72.10;;;;;;5063189;28;20518;-81
2023/06/25 01:45:30;;;;;;;19.20;7.50;;;19.60;72.20;;;;;;5074137;28;20821;-82
2023/06/25 01:47:58;;;;;;;10.90;6.50;;;19.60;72.20;;;;;;5064532;28;20506;-81
2023/06/25 01:50:27;;;;;;;18.70;6.43;;;19.50;72.10;;;;;;5085431;28;20464;-78
2023/06/25 01:52:54;;;;;;;18.73;7.00;;;19.50;72.00;;;;;;5067391;28;20510;-80
2023/06/25 01:55:22;;;;;;;14.77;8.10;;;19.50;72.00;;;;;;5067611;28;20564;-82
2023/06/25 01:57:52;;;;;;;13.73;6.80;;;19.40;72.00;;;;;;5087041;28;20537;-81
2023/06/25 02:00:20;;;;;;;13.27;7.40;;;19.40;72.00;;;;;;5073717;28;20505;-80
2023/06/25 02:03:01;;;;;;;19.87;7.37;;;19.40;72.00;;;;;;5066001;28;20571;-82
2023/06/25 02:05:30;;;;;;;21.07;7.87;;;19.40;72.10;;;;;;5071625;28;21088;-79
2023/06/25 02:07:58;;;;;;;14.60;7.30;;;19.40;72.10;;;;;;5089458;28;20555;-78
2023/06/25 02:10:26;;;;;;;14.30;7.07;;;19.40;72.00;;;;;;5069332;28;20818;-82
2023/06/25 02:12:56;;;;;;;11.93;7.40;;;19.30;71.90;;;;;;5065135;28;20453;-81
2023/06/25 02:15:24;;;;;;;14.70;7.10;;;19.30;71.90;;;;;;5066341;28;20458;-82
2023/06/25 02:17:52;;;;;;;14.70;7.07;;;19.30;71.90;;;;;;5086478;28;21320;-81
2023/06/25 02:20:20;;;;;;;18.70;6.53;;;19.30;71.90;;;;;;5075092;28;20448;-80
2023/06/25 02:22:48;;;;;;;9.20;6.40;;;19.20;71.90;;;;;;5085354;28;20475;-80
2023/06/25 02:25:16;;;;;;;11.10;7.07;;;19.20;71.90;;;;;;5084912;28;20518;-79
2023/06/25 02:27:44;;;;;;;15.37;7.90;;;19.20;71.90;;;;;;5062851;28;20487;-80
2023/06/25 02:30:15;;;;;;;12.17;7.63;;;19.20;71.90;;;;;;5085353;28;20977;-80
2023/06/25 02:32:43;;;;;;;14.57;7.73;;;19.20;71.90;;;;;;5084017;28;20481;-79
2023/06/25 02:35:11;;;;;;;12.80;7.13;;;19.10;71.90;;;;;;5088380;28;21129;-82
2023/06/25 02:37:39;;;;;;;19.00;7.30;;;19.00;71.90;;;;;;5089330;28;20446;-81
2023/06/25 02:40:08;;;;;;;16.33;7.50;;;19.00;72.00;;;;;;5085604;28;20451;-81
2023/06/25 02:42:57;;;;;;;14.27;7.97;;;18.90;72.00;;;;;;5084542;28;20464;-81
2023/06/25 02:45:26;;;;;;;12.80;7.03;;;18.80;72.10;;;;;;5083194;28;20510;-80
2023/06/25 02:47:55;;;;;;;10.53;7.50;;;18.80;72.30;;;;;;5074207;28;20474;-82
2023/06/25 02:50:23;;;;;;;12.63;8.17;;;18.70;72.40;;;;;;5064525;28;20469;-80
2023/06/25 02:52:51;;;;;;;15.33;8.13;;;18.70;72.40;;;;;;5062137;28;20459;-79
2023/06/25 02:55:20;;;;;;;18.77;6.80;;;18.60;72.50;;;;;;5072688;28;20843;-83
2023/06/25 02:57:48;;;;;;;11.73;6.50;;;18.60;72.70;;;;;;5088126;28;20547;-82
2023/06/25 03:00:17;;;;;;;13.70;6.80;;;18.60;72.90;;;;;;5064089;28;20467;-81
2023/06/25 03:02:46;;;;;;;16.27;7.37;;;18.70;72.90;;;;;;5082102;28;20602;-81
2023/06/25 03:05:14;;;;;;;13.40;7.23;;;18.70;72.90;;;;;;5067354;28;20533;-81
2023/06/25 03:07:50;;;;;;;27.63;7.50;;;18.80;72.80;;;;;;5075913;28;20491;-79
2023/06/25 03:10:19;;;;;;;19.53;7.07;;;18.80;72.80;;;;;;5076251;28;20466;-79
2023/06/25 03:12:47;;;;;;;13.77;7.60;;;18.80;72.60;;;;;;5085228;28;20478;-81
2023/06/25 03:15:15;;;;;;;17.40;6.97;;;18.80;72.50;;;;;;5071437;28;20523;-80
2023/06/25 03:17:43;;;;;;;13.67;7.57;;;18.80;72.40;;;;;;5069916;28;21231;-80
2023/06/25 03:20:13;;;;;;;12.20;7.57;;;18.80;72.30;;;;;;5081736;28;20460;-83
2023/06/25 03:22:42;;;;;;;14.73;6.87;;;18.70;72.30;;;;;;5066645;28;20459;-80
2023/06/25 03:25:12;;;;;;;15.13;6.90;;;18.70;72.40;;;;;;5067508;28;20464;-80
2023/06/25 03:27:43;;;;;;;13.37;7.40;;;18.60;72.30;;;;;;5068535;28;20496;-79
2023/06/25 03:30:12;;;;;;;16.63;7.73;;;18.60;72.40;;;;;;5063614;28;20454;-81
2023/06/25 03:32:41;;;;;;;14.00;7.77;;;18.50;72.50;;;;;;5070695;28;20811;-84
2023/06/25 03:35:13;;;;;;;12.03;8.13;;;18.50;72.50;;;;;;5069331;28;20554;-80
2023/06/25 03:37:43;;;;;;;16.53;7.70;;;18.50;72.60;;;;;;5069265;28;20455;-79
2023/06/25 03:40:13;;;;;;;15.10;7.50;;;18.50;72.70;;;;;;5062226;28;20456;-80
2023/06/25 03:42:41;;;;;;;16.23;6.90;;;18.50;72.70;;;;;;5089561;28;20839;-80
2023/06/25 03:45:10;;;;;;;17.60;6.93;;;18.60;72.70;;;;;;5070905;28;20466;-79
2023/06/25 03:47:40;;;;;;;14.63;6.70;;;18.60;72.80;;;;;;5070244;28;20483;-80
2023/06/25 03:50:09;;;;;;;12.07;7.17;;;18.70;72.80;;;;;;5065545;28;20452;-80
2023/06/25 03:52:39;;;;;;;16.67;6.97;;;18.70;72.80;;;;;;5050081;28;20857;-82
2023/06/25 03:55:07;;;;;;;20.13;7.60;;;18.70;72.70;;;;;;5068295;28;21024;-81
2023/06/25 03:57:36;;;;;;;11.90;6.80;;;18.70;72.60;;;;;;5066950;28;20460;-81
2023/06/25 04:00:07;;;;;;;19.97;8.17;;;18.70;72.50;;;;;;5068108;28;20466;-81
2023/06/25 04:02:39;;;;;;;15.30;6.90;;;18.60;72.50;;;;;;5080485;28;21009;-79
2023/06/25 04:05:08;;;;;;;18.63;8.37;;;18.60;72.60;;;;;;5065294;28;20455;-80
2023/06/25 04:07:36;;;;;;;17.10;8.23;;;18.60;72.70;;;;;;5072713;28;20560;-81
2023/06/25 04:10:07;;;;;;;9.27;6.10;;;18.70;72.70;;;;;;5076488;28;20462;-82
2023/06/25 04:12:35;;;;;;;16.43;8.30;;;18.60;72.80;;;;;;5060978;28;20467;-78
2023/06/25 04:15:03;;;;;;;17.53;7.77;;;18.70;72.80;;;;;;5089178;28;20476;-82
2023/06/25 04:17:31;;;;;;;15.43;7.60;;;18.70;72.80;;;;;;5074261;28;21017;-82
2023/06/25 04:19:59;;;;;;;15.50;7.70;;;18.70;72.90;;;;;;5079318;28;20450;-82
2023/06/25 04:22:30;;;;;;;16.77;7.97;;;18.80;72.90;;;;;;5065980;28;20512;-79
2023/06/25 04:24:58;;;;;;;18.37;8.00;;;18.80;72.90;;;;;;5063869;28;20543;-79
2023/06/25 04:27:28;;;;;;;13.73;8.17;;;18.80;73.00;;;;;;5072015;28;20853;-79
2023/06/25 04:29:57;;;;;;;19.80;7.67;;;18.90;73.00;;;;;;5066983;28;20459;-80
2023/06/25 04:32:27;;;;;;;17.57;8.13;;;18.90;73.10;;;;;;5073014;28;20536;-82
2023/06/25 04:34:55;;;;;;;14.33;7.37;;;19.00;73.20;;;;;;5073587;28;20470;-78
2023/06/25 04:37:23;;;;;;;18.43;8.03;;;19.10;73.20;;;;;;5070977;28;20506;-81
2023/06/25 04:39:53;;;;;;;13.43;7.50;;;19.20;73.20;;;;;;5072584;28;20466;-79
2023/06/25 04:42:21;;;;;;;19.00;7.70;;;19.40;73.20;;;;;;5072803;28;20455;-83
2023/06/25 04:44:52;;;;;;;14.90;7.27;;;19.60;73.30;;;;;;5088773;28;21033;-80
2023/06/25 04:47:25;;;;;;;11.50;6.90;;;19.70;73.10;;;;;;5053502;28;20492;-82
2023/06/25 04:49:54;;;;;;;14.63;7.37;;;19.90;72.90;;;;;;5050190;28;20453;-83
2023/06/25 04:52:23;;;;;;;15.50;8.00;;;20.10;72.90;;;;;;5053457;28;20461;-81
2023/06/25 04:54:51;;;;;;;12.43;7.87;;;20.30;72.90;;;;;;5048522;28;20540;-79
2023/06/25 04:57:19;;;;;;;15.80;7.53;;;20.50;72.70;;;;;;5063579;28;20468;-80
2023/06/25 04:59:47;;;;;;;16.20;7.37;;;20.70;72.60;;;;;;5066905;28;21003;-81
2023/06/25 05:02:16;;;;;;;13.97;7.57;;;21.00;72.40;;;;;;5063526;28;21003;-80
2023/06/25 05:04:44;;;;;;;14.00;7.13;;;21.20;72.20;;;;;;5050320;28;20540;-79
2023/06/25 05:07:14;;;;;;;12.80;7.47;;;21.30;71.90;;;;;;5060646;28;20927;-81
2023/06/25 05:09:41;;;;;;;16.83;8.33;;;21.50;71.80;;;;;;5070231;28;20465;-82
2023/06/25 05:12:10;;;;;;;17.60;7.70;;;21.60;71.60;;;;;;5053471;28;20453;-78
2023/06/25 05:14:39;;;;;;;21.57;8.80;;;21.80;71.50;;;;;;5065972;28;20473;-80
2023/06/25 05:17:07;;;;;;;14.60;7.60;;;21.90;71.50;;;;;;5066561;28;20451;-79
2023/06/25 05:19:36;;;;;;;16.20;8.13;;;22.10;71.40;;;;;;5066306;28;20449;-82
2023/06/25 05:22:05;;;;;;;13.07;7.27;;;22.20;71.30;;;;;;5064778;28;20939;-80
2023/06/25 05:24:33;;;;;;;19.13;8.30;;;22.30;71.10;;;;;;5052774;28;20448;-80
2023/06/25 05:27:01;;;;;;;13.73;8.03;;;22.50;71.00;;;;;;5052778;28;20446;-83
2023/06/25 05:29:29;;;;;;;11.73;7.33;;;22.60;70.90;;;;;;5068905;28;20470;-80
2023/06/25 05:31:58;;;;;;;13.30;8.10;;;22.70;70.80;;;;;;5064340;28;20557;-80
2023/06/25 05:34:28;;;;;;;14.70;8.43;;;22.90;70.80;;;;;;5059093;28;21003;-81
2023/06/25 05:36:57;;;;;;;13.03;8.40;;;23.00;70.50;;;;;;5052275;28;20446;-80
2023/06/25 05:39:28;;;;;;;11.03;8.03;;;23.20;70.40;;;;;;5033934;28;21154;-81
2023/06/25 05:41:59;;;;;;;12.70;8.10;;;23.30;70.30;;;;;;5051626;28;20479;-81
2023/06/25 05:44:27;;;;;;;11.27;7.20;;;23.60;70.30;;;;;;5066720;28;20454;-81
2023/06/25 05:46:55;;;;;;;13.60;7.93;;;24.20;69.40;;;;;;5076946;28;20880;-82
2023/06/25 05:49:23;;;;;;;10.93;7.50;;;25.10;67.50;;;;;;5084009;28;20488;-79
2023/06/25 05:51:51;;;;;;;10.00;7.13;;;26.00;65.70;;;;;;5077767;28;20555;-81
2023/06/25 05:54:21;;;;;;;10.13;6.67;;;26.80;64.30;;;;;;5080853;28;20463;-80
2023/06/25 05:56:49;;;;;;;10.03;6.70;;;27.70;63.00;;;;;;5086399;28;20463;-78
2023/06/25 05:59:17;;;;;;;11.00;7.87;;;28.40;62.00;;;;;;5084671;28;20532;-82
2023/06/25 06:01:46;;;;;;;9.20;6.80;;;29.10;60.80;;;;;;5071396;28;20558;-80
2023/06/25 06:04:14;;;;;;;13.00;7.93;;;29.70;59.70;;;;;;5067898;28;20540;-82
2023/06/25 06:06:44;;;;;;;11.40;6.70;;;30.10;58.60;;;;;;5077265;28;20491;-78
2023/06/25 06:09:12;;;;;;;8.97;7.00;;;30.50;57.90;;;;;;5080877;28;20599;-81
2023/06/25 06:11:41;;;;;;;11.30;7.40;;;30.90;57.10;;;;;;5081753;28;20455;-80
2023/06/25 06:14:09;;;;;;;10.27;6.37;;;30.90;56.40;;;;;;5084131;28;20532;-81
2023/06/25 06:16:37;;;;;;;11.20;6.90;;;30.60;56.20;;;;;;5069811;28;20460;-83
2023/06/25 06:19:05;;;;;;;10.53;6.87;;;30.20;56.70;;;;;;5084295;28;20444;-82
2023/06/25 06:21:32;;;;;;;10.83;7.10;;;29.90;56.90;;;;;;5083902;28;20467;-81
2023/06/25 06:24:00;;;;;;;10.70;7.20;;;29.50;57.00;;;;;;5077984;28;20464;-81
2023/06/25 06:26:28;;;;;;;11.00;7.63;;;29.10;57.50;;;;;;5086398;28;20942;-80
2023/06/25 06:29:03;;;;;;;9.70;7.13;;;28.60;57.70;;;;;;5090137;28;20472;-79
2023/06/25 06:31:32;;;;;;;11.63;7.23;;;28.20;58.10;;;;;;5080521;28;20578;-80
2023/06/25 06:34:00;;;;;;;16.43;6.40;;;27.70;58.30;;;;;;5069843;28;20481;-82
2023/06/25 06:36:28;;;;;;;10.23;6.70;;;27.30;58.70;;;;;;5063758;28;20487;-81
2023/06/25 06:38:57;;;;;;;10.87;7.00;;;26.80;58.90;;;;;;5064096;28;20485;-81
2023/06/25 06:41:25;;;;;;;12.10;7.33;;;26.40;59.00;;;;;;5075627;28;20445;-81
2023/06/25 06:43:53;;;;;;;12.87;7.10;;;26.00;59.30;;;;;;5071494;28;20459;-82
2023/06/25 06:46:22;;;;;;;15.07;7.40;;;25.60;59.70;;;;;;5073362;28;20462;-81
2023/06/25 06:48:50;;;;;;;10.03;6.70;;;25.30;60.10;;;;;;5074984;28;20904;-81
2023/06/25 06:51:18;;;;;;;9.90;6.93;;;25.10;60.30;;;;;;5087655;28;20534;-81
2023/06/25 06:53:46;;;;;;;13.47;7.13;;;24.80;60.60;;;;;;5068504;28;20480;-81
2023/06/25 06:56:13;;;;;;;11.70;7.50;;;24.70;60.90;;;;;;5076930;28;20469;-81
2023/06/25 06:58:41;;;;;;;10.77;6.70;;;24.60;61.30;;;;;;5073699;28;20968;-81
2023/06/25 07:01:09;;;;;;;10.07;6.67;;;24.50;61.50;;;;;;5071203;28;20831;-81
2023/06/25 07:03:39;;;;;;;9.97;6.83;;;24.40;61.40;;;;;;5064316;28;20453;-81
2023/06/25 07:06:06;;;;;;;10.03;6.70;;;24.30;61.60;;;;;;5087828;28;20453;-80
2023/06/25 07:08:34;;;;;;;10.37;5.93;;;24.30;61.80;;;;;;5082982;28;20465;-81
2023/06/25 07:11:02;;;;;;;10.10;6.77;;;24.20;61.80;;;;;;5078450;28;21032;-81
2023/06/25 07:13:30;;;;;;;11.43;6.80;;;24.20;61.70;;;;;;5081269;28;20448;-81
2023/06/25 07:15:58;;;;;;;12.20;7.23;;;24.20;61.80;;;;;;5083962;28;20855;-80
2023/06/25 07:18:26;;;;;;;10.70;7.03;;;24.20;61.80;;;;;;5075587;28;20536;-82
2023/06/25 07:20:57;;;;;;;10.70;7.67;;;24.20;61.90;;;;;;5084682;28;20444;-81
2023/06/25 07:23:25;;;;;;;12.10;6.70;;;24.20;62.00;;;;;;5085230;28;20448;-79
2023/06/25 07:25:53;;;;;;;10.80;7.40;;;24.20;61.90;;;;;;5071156;28;20511;-80
2023/06/25 07:28:21;;;;;;;8.97;6.43;;;24.30;62.00;;;;;;5080996;28;20541;-80
2023/06/25 07:30:49;;;;;;;9.40;6.40;;;24.30;62.00;;;;;;5083047;28;20479;-80
2023/06/25 07:33:17;;;;;;;12.37;6.40;;;24.30;62.10;;;;;;5061129;28;20958;-79
2023/06/25 07:35:47;;;;;;;11.17;6.80;;;24.30;62.20;;;;;;5088214;28;20457;-81
2023/06/25 07:38:17;;;;;;;9.47;6.37;;;24.40;62.10;;;;;;5083955;28;20488;-79
2023/06/25 07:40:45;;;;;;;10.93;7.70;;;24.40;62.10;;;;;;5084650;28;20478;-81
2023/06/25 07:43:13;;;;;;;11.20;7.17;;;24.40;62.10;;;;;;5083428;28;20541;-81
2023/06/25 07:45:41;;;;;;;10.87;6.60;;;24.40;62.00;;;;;;5086793;28;20445;-79
2023/06/25 07:48:09;;;;;;;11.30;6.80;;;24.50;62.00;;;;;;5069055;28;20484;-79
2023/06/25 07:50:37;;;;;;;9.47;6.60;;;24.50;62.10;;;;;;5077238;28;21462;-82
2023/06/25 07:53:07;;;;;;;10.57;6.97;;;24.50;62.10;;;;;;5083303;28;20456;-79
2023/06/25 07:55:41;;;;;;;9.80;6.60;;;24.60;62.00;;;;;;5085238;28;20453;-81
2023/06/25 07:58:33;;;;;;;13.83;7.03;;;24.60;62.00;;;;;;5088884;28;20486;-81
2023/06/25 08:01:02;;;;;;;10.63;6.63;;;24.60;62.00;;;;;;5067698;28;20864;-80
2023/06/25 08:03:34;;;;;;;9.07;6.10;;;24.70;62.00;;;;;;5088890;28;20453;-81
2023/06/25 08:06:03;;;;;;;13.40;6.97;;;24.70;61.80;;;;;;5077069;28;20449;-80
2023/06/25 08:08:33;;;;;;;9.87;6.60;;;24.70;61.80;;;;;;5087126;28;20480;-80
2023/06/25 08:11:03;;;;;;;9.00;6.10;;;24.70;61.80;;;;;;5084674;28;20508;-81
2023/06/25 08:13:32;;;;;;;10.73;6.80;;;24.80;61.80;;;;;;5090731;28;20448;-80
2023/06/25 08:16:01;;;;;;;10.97;7.40;;;24.80;61.80;;;;;;5094304;28;20440;-81
2023/06/25 08:18:32;;;;;;;10.27;6.60;;;24.90;61.70;;;;;;5075132;28;20446;-82
2023/06/25 08:21:04;;;;;;;11.60;6.80;;;24.90;61.60;;;;;;5070948;28;20444;-81
2023/06/25 08:23:35;;;;;;;8.97;5.93;;;24.90;61.30;;;;;;5091838;28;20543;-82
2023/06/25 08:26:05;;;;;;;9.70;6.80;;;25.00;61.30;;;;;;5092420;28;20552;-79
2023/06/25 08:28:33;;;;;;;9.40;6.67;;;25.00;61.20;;;;;;5090775;28;20452;-80
2023/06/25 08:31:04;;;;;;;9.00;6.07;;;25.00;61.20;;;;;;5063077;28;20644;-81
2023/06/25 08:33:32;;;;;;;9.20;6.40;;;25.00;61.00;;;;;;5086470;28;20440;-79
2023/06/25 08:36:02;;;;;;;8.77;5.80;;;25.00;60.90;;;;;;5091165;28;21196;-82
2023/06/25 08:38:33;;;;;;;10.17;5.97;;;25.10;60.70;;;;;;5088902;28;20547;-79
2023/06/25 08:41:05;;;;;;;7.90;5.80;;;25.10;60.50;;;;;;5074010;28;20791;-81
2023/06/25 08:43:37;;;;;;;8.20;5.60;;;25.10;60.30;;;;;;5073663;28;20548;-80
2023/06/25 08:46:08;;;;;;;8.63;5.83;;;25.20;60.10;;;;;;5068974;28;20453;-81
2023/06/25 08:48:41;;;;;;;11.00;5.27;;;25.20;59.50;;;;;;5073175;28;20456;-79
2023/06/25 08:51:13;;;;;;;9.53;6.00;;;25.30;59.30;;;;;;5088373;28;20476;-80
2023/06/25 08:53:41;;;;;;;8.60;5.70;;;25.30;59.20;;;;;;5072101;28;20538;-81
2023/06/25 08:56:16;;;;;;;8.40;5.13;;;25.40;58.80;;;;;;5089294;28;20974;-81
2023/06/25 08:58:45;;;;;;;8.90;5.33;;;25.40;58.50;;;;;;5092230;28;20451;-79
2023/06/25 09:01:18;;;;;;;8.43;5.10;;;25.50;58.30;;;;;;5082270;28;21068;-82
2023/06/25 09:03:47;;;;;;;8.27;5.10;;;25.50;58.00;;;;;;5068951;28;20490;-82
2023/06/25 09:06:18;;;;;;;8.83;4.97;;;25.60;58.00;;;;;;5070634;28;20503;-81
2023/06/25 09:08:50;;;;;;;8.00;5.00;;;25.70;57.70;;;;;;5083959;28;20488;-81
2023/06/25 09:11:19;;;;;;;9.50;5.40;;;25.70;57.70;;;;;;5084201;28;20508;-81
2023/06/25 09:13:48;;;;;;;10.53;6.00;;;25.80;57.40;;;;;;5079211;28;20450;-80
2023/06/25 09:16:16;;;;;;;8.00;5.13;;;25.80;57.20;;;;;;5069245;28;20450;-81
2023/06/25 09:18:46;;;;;;;9.73;5.30;;;25.80;57.00;;;;;;5090095;28;20440;-82
2023/06/25 09:21:17;;;;;;;8.63;5.27;;;25.80;56.90;;;;;;5067797;28;20482;-81
2023/06/25 09:23:50;;;;;;;9.20;5.10;;;25.90;56.70;;;;;;5084679;28;20448;-81
2023/06/25 09:26:23;;;;;;;8.17;5.20;;;25.90;56.50;;;;;;5088520;28;20465;-82
2023/06/25 09:28:59;;;;;;;8.50;5.50;;;25.90;56.20;;;;;;5088954;28;20926;-79
2023/06/25 09:31:27;;;;;;;9.00;5.30;;;26.00;56.10;;;;;;5081091;28;20533;-82
2023/06/25 09:33:55;;;;;;;7.93;5.13;;;26.00;56.00;;;;;;5084081;28;20788;-80
2023/06/25 09:36:33;;;;;;;7.67;4.77;;;26.00;56.00;;;;;;5068363;28;20450;-82
2023/06/25 09:39:08;;;;;;;9.70;4.77;;;26.10;55.80;;;;;;5062704;28;20503;-80
2023/06/25 09:41:42;;;;;;;8.83;4.87;;;26.10;55.40;;;;;;5089883;28;20929;-81
2023/06/25 09:44:11;;;;;;;7.60;4.80;;;26.10;55.30;;;;;;5087906;28;20452;-80
2023/06/25 09:46:41;;;;;;;8.87;5.10;;;26.20;55.30;;;;;;5089100;28;21174;-80
2023/06/25 09:49:10;;;;;;;8.20;5.17;;;26.20;55.10;;;;;;5065805;28;20947;-80
2023/06/25 09:51:47;;;;;;;9.03;5.20;;;26.20;55.10;;;;;;5080253;28;20575;-80
2023/06/25 09:54:22;;;;;;;8.23;5.17;;;26.30;54.80;;;;;;5067452;28;20518;-80
2023/06/25 09:56:56;;;;;;;8.20;5.23;;;26.30;54.80;;;;;;5083539;28;20903;-80
2023/06/25 09:59:32;;;;;;;7.33;4.63;;;26.30;54.60;;;;;;5085349;28;20456;-78
2023/06/25 10:02:03;;;;;;;7.10;4.37;;;26.40;54.20;;;;;;5055831;28;20468;-82
2023/06/25 10:04:35;;;;;;;7.67;4.90;;;26.40;54.30;;;;;;5070474;28;20506;-79
2023/06/25 10:07:06;;;;;;;8.13;5.37;;;26.50;54.40;;;;;;5069415;28;20457;-83
2023/06/25 10:09:35;;;;;;;9.33;5.30;;;26.50;54.50;;;;;;5082968;28;20812;-81
2023/06/25 10:12:12;;;;;;;7.50;5.13;;;26.50;54.50;;;;;;5067045;28;20484;-80
2023/06/25 10:14:42;;;;;;;8.37;5.20;;;26.60;54.40;;;;;;5083614;28;20481;-81
2023/06/25 10:17:12;;;;;;;8.63;5.33;;;26.60;54.50;;;;;;5085014;28;20460;-81
2023/06/25 10:19:51;;;;;;;9.30;5.90;;;26.60;54.60;;;;;;5085307;28;20482;-80
2023/06/25 10:22:28;;;;;;;8.93;5.50;;;26.60;54.50;;;;;;5067113;28;20464;-80
2023/06/25 10:24:58;;;;;;;9.27;5.37;;;26.60;54.20;;;;;;5083163;28;20460;-81
2023/06/25 10:27:40;;;;;;;10.37;5.43;;;26.70;54.40;;;;;;5065357;28;20816;-82
2023/06/25 10:30:14;;;;;;;8.00;5.17;;;26.70;54.40;;;;;;5063476;28;20791;-82
2023/06/25 10:32:46;;;;;;;8.80;5.83;;;26.60;54.40;;;;;;5084227;28;20569;-80
2023/06/25 10:35:22;;;;;;;10.70;5.60;;;26.70;54.40;;;;;;5083534;28;20444;-79
2023/06/25 10:37:50;;;;;;;8.77;5.60;;;26.70;54.50;;;;;;5071304;28;20455;-82
2023/06/25 10:40:20;;;;;;;9.23;5.70;;;26.70;54.40;;;;;;5089248;28;20457;-81
2023/06/25 10:42:52;;;;;;;9.20;6.00;;;26.80;54.30;;;;;;5086287;28;20514;-81
2023/06/25 10:45:21;;;;;;;9.73;6.17;;;26.80;54.20;;;;;;5067493;28;20507;-82
2023/06/25 10:47:50;;;;;;;10.80;5.03;;;26.80;54.20;;;;;;5065235;28;21099;-81
2023/06/25 10:50:19;;;;;;;9.03;5.43;;;26.80;54.10;;;;;;5059868;28;20492;-80
2023/06/25 10:52:50;;;;;;;10.67;5.30;;;26.80;54.10;;;;;;5057719;28;20502;-80
2023/06/25 10:55:25;;;;;;;9.37;5.50;;;26.80;54.00;;;;;;5049389;28;20450;-81
2023/06/25 10:57:55;;;;;;;10.70;5.43;;;26.80;54.20;;;;;;5053923;28;20453;-81
2023/06/25 11:00:27;;;;;;;8.77;5.10;;;26.70;54.30;;;;;;5050054;28;20544;-82
2023/06/25 11:02:58;;;;;;;10.10;5.63;;;26.80;54.30;;;;;;5059603;28;20454;-80
2023/06/25 11:05:36;;;;;;;8.07;5.00;;;26.80;54.60;;;;;;5063204;28;20456;-82
2023/06/25 11:08:07;;;;;;;8.73;5.83;;;26.90;54.30;;;;;;5064659;28;20454;-81
2023/06/25 11:10:38;;;;;;;7.90;5.00;;;26.90;54.40;;;;;;5064381;28;20544;-80
2023/06/25 11:13:11;;;;;;;9.00;5.70;;;27.00;54.50;;;;;;5067183;28;20823;-81
2023/06/25 11:15:41;;;;;;;10.30;5.67;;;27.10;54.20;;;;;;5065203;28;20446;-81
2023/06/25 11:18:11;;;;;;;11.70;6.13;;;27.10;54.00;;;;;;5047231;28;20454;-81
2023/06/25 11:20:40;;;;;;;11.47;6.20;;;27.20;53.90;;;;;;5061284;28;21004;-81
2023/06/25 11:23:15;;;;;;;8.37;5.27;;;27.20;53.70;;;;;;5051806;28;20446;-80
2023/06/25 11:25:48;;;;;;;8.87;5.53;;;27.30;53.70;;;;;;5050444;28;20589;-82
2023/06/25 11:28:21;;;;;;;14.00;6.17;;;27.20;53.70;;;;;;5072282;28;20480;-80
2023/06/25 11:30:57;;;;;;;8.00;5.07;;;27.20;53.70;;;;;;5051652;28;20824;-82
2023/06/25 11:33:28;;;;;;;10.30;5.57;;;27.20;53.70;;;;;;5065582;28;20535;-80
2023/06/25 11:36:06;;;;;;;7.80;4.70;;;27.20;53.80;;;;;;5067961;28;20462;-80
2023/06/25 11:38:35;;;;;;;12.03;5.43;;;27.20;54.00;;;;;;5045410;28;20453;-80
2023/06/25 11:41:07;;;;;;;8.33;5.80;;;27.20;54.10;;;;;;5059683;28;20454;-80
2023/06/25 11:43:36;;;;;;;9.90;5.60;;;27.30;54.00;;;;;;5067482;28;20500;-82
2023/06/25 11:46:08;;;;;;;9.30;6.00;;;27.40;53.90;;;;;;5063969;28;20468;-81
2023/06/25 11:48:36;;;;;;;11.77;5.67;;;27.40;53.80;;;;;;5084305;28;20962;-81
2023/06/25 11:51:07;;;;;;;8.93;5.00;;;27.40;53.70;;;;;;5078910;28;20456;-80
2023/06/25 11:53:35;;;;;;;7.80;4.80;;;27.40;53.70;;;;;;5069293;28;20464;-81
2023/06/25 11:56:09;;;;;;;13.53;5.47;;;27.40;53.70;;;;;;5085269;28;20452;-82
2023/06/25 11:58:41;;;;;;;8.97;5.40;;;27.40;53.90;;;;;;5068690;28;20631;-81
2023/06/25 12:01:11;;;;;;;8.33;5.40;;;27.40;54.00;;;;;;5081535;28;20490;-78
2023/06/25 12:03:39;;;;;;;9.13;5.27;;;27.40;54.00;;;;;;5067041;28;20463;-82
2023/06/25 12:06:07;;;;;;;9.30;5.60;;;27.40;53.80;;;;;;5084979;28;21018;-81
2023/06/25 12:08:35;;;;;;;8.07;4.70;;;27.40;54.00;;;;;;5067415;28;20460;-82
2023/06/25 12:11:03;;;;;;;12.53;5.40;;;27.40;54.00;;;;;;5068833;28;20456;-80
2023/06/25 12:13:31;;;;;;;8.93;5.20;;;27.50;54.00;;;;;;5085782;28;20974;-81
2023/06/25 12:24:29;;;;;;;8.00;4.87;;;27.70;53.60;;;;;;5081318;28;20552;-78
2023/06/25 12:26:57;;;;;;;7.40;4.90;;;27.70;53.60;;;;;;5069830;28;20786;-82
2023/06/25 12:29:25;;;;;;;8.30;5.13;;;27.80;53.40;;;;;;5080548;28;20448;-82
2023/06/25 12:31:53;;;;;;;8.53;5.67;;;27.80;53.30;;;;;;5074582;28;20824;-80
2023/06/25 12:34:22;;;;;;;10.17;6.27;;;27.80;53.30;;;;;;5078166;28;20445;-79
2023/06/25 12:36:49;;;;;;;9.63;5.10;;;27.80;53.30;;;;;;5075075;28;20967;-81
2023/06/25 12:39:17;;;;;;;8.20;4.97;;;27.80;53.50;;;;;;5088718;28;20924;-81
2023/06/25 12:41:47;;;;;;;6.77;4.40;;;27.80;53.60;;;;;;5086370;28;20822;-81
2023/06/25 12:44:15;;;;;;;9.40;4.93;;;27.80;53.50;;;;;;5087252;28;20453;-82
2023/06/25 12:46:43;;;;;;;9.70;6.10;;;27.80;53.50;;;;;;5086530;28;20805;-80
2023/06/25 12:49:11;;;;;;;8.17;4.43;;;27.90;53.50;;;;;;5086545;28;20456;-80
2023/06/25 12:51:39;;;;;;;7.83;4.73;;;27.90;53.50;;;;;;5061688;28;20493;-82
2023/06/25 12:54:07;;;;;;;7.60;4.70;;;27.90;53.50;;;;;;5083177;28;20489;-79
2023/06/25 13:01:38;;;;;;;11.00;6.07;;;27.90;53.60;;;;;;5081396;28;20855;-81
2023/06/25 13:04:08;;;;;;;8.60;5.00;;;28.00;53.50;;;;;;5065095;28;20468;-80
2023/06/25 13:06:37;;;;;;;8.17;5.30;;;28.00;53.40;;;;;;5088823;28;20452;-82